Portada
METAR-TAF:

METAR-TAF

Aeroports :

Hua Hin, Tailàndia

latitud: 12-35N, longitud: 099-57E, altitud: 5 m

Observació

L'informe es va fer fa 9 hores i 52 minuts, a les 10:00 UTC
Vent 5 kt del Nord, variant entre Oest i Nord/Nord-Est
Temperatura 28°C
Humitat 74%
Pressió 1007 hPa
Visibilitat 10 km o més
Núvols disperses a una alçada de 4000 ft

METAR: VTPH 211000Z 35005KT 270V020 9999 SCT040 28/23 Q1007 NOSIG

Hora: 02:52 (19:52 UTC)

Pronòstic

L'informe es va fer fa 2 hores i 52 minuts, a les 17:00 UTC
Pronòstic vàlid del 21 a les 18 UTC al 22 a les 18 UTC
Vent 5 kt del Nord
Visibilitat 10 km o més
Escasses núvols a una alçada de 2000 ft
Núvols disperses a una alçada de 10000 ft
Temporalment
l' 21 a les 20 UTC al 22 a les 02 UTC
Visibilitat: 5000 m
Núvols disperses a una alçada de 1500 ft
Cel ennuvolat a una alçada de 10000 ft
pluja

TAF: VTPH 211700Z 2118/2218 35005KT 9999 FEW020 SCT100 TEMPO 2120/2202 5000 RA SCT015 BKN100

Observacions i pronòstics meteorològics de més de 4000 aeroports (METAR i TAF).

Les estacions disponibles són els punts grocs i vermells al mapa.

Posi el ratolí al punt desitjat per veure el nom de l'estació.

Feu clic per veure les observacions i els pronòstics meteorològics.

Per canviar el mapa: feu clic els botons verds amb una creu de color negre per apropar; al botó verd amb un guió per allunyar la imatge; o en les fletxes verdes per a mapes adjacents.


METAR-TAF: